sensor_id;sensor_type;location;lat;lon;timestamp;P1;durP1;ratioP1;P2;durP2;ratioP2
63093;SDS011;49183;51.380;0.098;2023-09-12T00:00:49;25.52;;;16.13;;
63093;SDS011;49183;51.380;0.098;2023-09-12T00:03:21;27.13;;;17.25;;
63093;SDS011;49183;51.380;0.098;2023-09-12T00:05:51;25.90;;;17.60;;
63093;SDS011;49183;51.380;0.098;2023-09-12T00:08:23;30.05;;;19.02;;
63093;SDS011;49183;51.380;0.098;2023-09-12T00:11:01;25.83;;;17.57;;
63093;SDS011;49183;51.380;0.098;2023-09-12T00:13:30;24.55;;;18.23;;
63093;SDS011;49183;51.380;0.098;2023-09-12T00:15:58;26.75;;;19.92;;
63093;SDS011;49183;51.380;0.098;2023-09-12T00:18:26;27.73;;;19.20;;
63093;SDS011;49183;51.380;0.098;2023-09-12T00:20:54;26.52;;;17.52;;
63093;SDS011;49183;51.380;0.098;2023-09-12T00:23:22;27.65;;;20.13;;
63093;SDS011;49183;51.380;0.098;2023-09-12T00:25:50;27.20;;;19.15;;
63093;SDS011;49183;51.380;0.098;2023-09-12T00:28:19;31.67;;;20.75;;
63093;SDS011;49183;51.380;0.098;2023-09-12T00:30:48;29.85;;;19.92;;
63093;SDS011;49183;51.380;0.098;2023-09-12T00:33:15;26.42;;;19.27;;
63093;SDS011;49183;51.380;0.098;2023-09-12T00:35:44;34.33;;;21.50;;
63093;SDS011;49183;51.380;0.098;2023-09-12T00:38:12;36.40;;;23.60;;
63093;SDS011;49183;51.380;0.098;2023-09-12T00:40:39;30.83;;;21.00;;
63093;SDS011;49183;51.380;0.098;2023-09-12T00:43:07;36.30;;;22.55;;
63093;SDS011;49183;51.380;0.098;2023-09-12T00:45:35;32.67;;;21.38;;
63093;SDS011;49183;51.380;0.098;2023-09-12T00:48:03;31.92;;;20.65;;
63093;SDS011;49183;51.380;0.098;2023-09-12T00:50:32;37.85;;;21.63;;
63093;SDS011;49183;51.380;0.098;2023-09-12T00:53:01;32.67;;;20.10;;
63093;SDS011;49183;51.380;0.098;2023-09-12T00:55:31;31.50;;;21.60;;
63093;SDS011;49183;51.380;0.098;2023-09-12T00:58:00;43.08;;;23.67;;
63093;SDS011;49183;51.380;0.098;2023-09-12T01:00:28;43.92;;;24.23;;
63093;SDS011;49183;51.380;0.098;2023-09-12T01:02:56;42.28;;;24.00;;
63093;SDS011;49183;51.380;0.098;2023-09-12T01:05:25;35.10;;;22.10;;
63093;SDS011;49183;51.380;0.098;2023-09-12T01:07:56;45.83;;;24.75;;
63093;SDS011;49183;51.380;0.098;2023-09-12T01:10:24;42.25;;;24.77;;
63093;SDS011;49183;51.380;0.098;2023-09-12T01:12:52;45.83;;;25.48;;
63093;SDS011;49183;51.380;0.098;2023-09-12T01:15:20;40.73;;;24.80;;
63093;SDS011;49183;51.380;0.098;2023-09-12T01:17:48;38.13;;;24.60;;
63093;SDS011;49183;51.380;0.098;2023-09-12T01:20:18;33.97;;;22.90;;
63093;SDS011;49183;51.380;0.098;2023-09-12T01:28:39;17.15;;;15.38;;
63093;SDS011;49183;51.380;0.098;2023-09-12T01:31:10;18.55;;;14.02;;
63093;SDS011;49183;51.380;0.098;2023-09-12T01:33:40;14.25;;;12.50;;
63093;SDS011;49183;51.380;0.098;2023-09-12T01:36:09;18.80;;;13.60;;
63093;SDS011;49183;51.380;0.098;2023-09-12T01:38:39;12.57;;;11.27;;
63093;SDS011;49183;51.380;0.098;2023-09-12T01:41:07;14.70;;;12.95;;
63093;SDS011;49183;51.380;0.098;2023-09-12T01:43:35;16.70;;;11.20;;
63093;SDS011;49183;51.380;0.098;2023-09-12T01:46:06;13.02;;;10.50;;
63093;SDS011;49183;51.380;0.098;2023-09-12T01:48:35;12.45;;;10.40;;
63093;SDS011;49183;51.380;0.098;2023-09-12T01:51:04;11.38;;;9.93;;
63093;SDS011;49183;51.380;0.098;2023-09-12T01:53:33;15.40;;;9.70;;
63093;SDS011;49183;51.380;0.098;2023-09-12T01:56:03;16.98;;;10.93;;
63093;SDS011;49183;51.380;0.098;2023-09-12T01:58:31;11.23;;;9.68;;
63093;SDS011;49183;51.380;0.098;2023-09-12T02:00:59;12.07;;;10.47;;
63093;SDS011;49183;51.380;0.098;2023-09-12T02:03:29;11.15;;;9.32;;
63093;SDS011;49183;51.380;0.098;2023-09-12T02:05:57;11.30;;;9.63;;
63093;SDS011;49183;51.380;0.098;2023-09-12T02:08:25;12.82;;;9.68;;
63093;SDS011;49183;51.380;0.098;2023-09-12T02:10:52;15.80;;;10.07;;
63093;SDS011;49183;51.380;0.098;2023-09-12T02:13:20;12.30;;;9.98;;
63093;SDS011;49183;51.380;0.098;2023-09-12T02:15:48;15.82;;;10.40;;
63093;SDS011;49183;51.380;0.098;2023-09-12T02:18:16;14.87;;;9.43;;
63093;SDS011;49183;51.380;0.098;2023-09-12T02:20:44;12.43;;;9.77;;
63093;SDS011;49183;51.380;0.098;2023-09-12T02:23:13;11.63;;;8.25;;
63093;SDS011;49183;51.380;0.098;2023-09-12T02:25:42;13.98;;;9.02;;
63093;SDS011;49183;51.380;0.098;2023-09-12T02:28:11;13.20;;;9.75;;
63093;SDS011;49183;51.380;0.098;2023-09-12T02:30:39;14.40;;;10.55;;
63093;SDS011;49183;51.380;0.098;2023-09-12T02:33:09;13.45;;;10.55;;
63093;SDS011;49183;51.380;0.098;2023-09-12T02:35:38;15.40;;;10.23;;
63093;SDS011;49183;51.380;0.098;2023-09-12T02:38:07;15.00;;;10.80;;
63093;SDS011;49183;51.380;0.098;2023-09-12T02:40:35;11.45;;;8.73;;
63093;SDS011;49183;51.380;0.098;2023-09-12T02:43:02;9.57;;;7.60;;
63093;SDS011;49183;51.380;0.098;2023-09-12T02:45:30;14.02;;;8.80;;
63093;SDS011;49183;51.380;0.098;2023-09-12T02:47:58;11.77;;;9.20;;
63093;SDS011;49183;51.380;0.098;2023-09-12T02:50:26;14.10;;;8.63;;
63093;SDS011;49183;51.380;0.098;2023-09-12T02:52:53;12.68;;;8.63;;
63093;SDS011;49183;51.380;0.098;2023-09-12T02:55:21;9.48;;;7.45;;
63093;SDS011;49183;51.380;0.098;2023-09-12T02:57:49;11.27;;;7.70;;
63093;SDS011;49183;51.380;0.098;2023-09-12T03:00:16;8.45;;;6.93;;
63093;SDS011;49183;51.380;0.098;2023-09-12T03:02:46;12.90;;;7.65;;
63093;SDS011;49183;51.380;0.098;2023-09-12T03:05:14;9.80;;;8.43;;
63093;SDS011;49183;51.380;0.098;2023-09-12T03:07:41;11.63;;;6.45;;
63093;SDS011;49183;51.380;0.098;2023-09-12T03:10:09;8.77;;;6.95;;
63093;SDS011;49183;51.380;0.098;2023-09-12T03:12:37;10.23;;;8.10;;
63093;SDS011;49183;51.380;0.098;2023-09-12T03:15:08;9.13;;;6.93;;
63093;SDS011;49183;51.380;0.098;2023-09-12T03:17:37;8.43;;;6.90;;
63093;SDS011;49183;51.380;0.098;2023-09-12T03:20:05;7.35;;;6.55;;
63093;SDS011;49183;51.380;0.098;2023-09-12T03:22:36;8.60;;;7.20;;
63093;SDS011;49183;51.380;0.098;2023-09-12T03:25:06;9.20;;;7.25;;
63093;SDS011;49183;51.380;0.098;2023-09-12T03:27:34;9.27;;;7.13;;
63093;SDS011;49183;51.380;0.098;2023-09-12T03:30:03;11.00;;;7.43;;
63093;SDS011;49183;51.380;0.098;2023-09-12T03:32:32;10.43;;;7.40;;
63093;SDS011;49183;51.380;0.098;2023-09-12T03:35:00;16.15;;;7.68;;
63093;SDS011;49183;51.380;0.098;2023-09-12T03:37:27;9.98;;;6.18;;
63093;SDS011;49183;51.380;0.098;2023-09-12T03:39:56;13.32;;;6.78;;
63093;SDS011;49183;51.380;0.098;2023-09-12T03:42:23;8.20;;;6.80;;
63093;SDS011;49183;51.380;0.098;2023-09-12T03:45:00;8.88;;;8.00;;
63093;SDS011;49183;51.380;0.098;2023-09-12T03:47:28;8.77;;;6.80;;
63093;SDS011;49183;51.380;0.098;2023-09-12T03:49:56;9.75;;;7.22;;
63093;SDS011;49183;51.380;0.098;2023-09-12T03:52:24;12.13;;;7.60;;
63093;SDS011;49183;51.380;0.098;2023-09-12T03:54:51;9.10;;;7.63;;
63093;SDS011;49183;51.380;0.098;2023-09-12T03:57:19;11.20;;;7.25;;
63093;SDS011;49183;51.380;0.098;2023-09-12T03:59:47;11.23;;;7.45;;
63093;SDS011;49183;51.380;0.098;2023-09-12T04:02:15;15.20;;;8.37;;
63093;SDS011;49183;51.380;0.098;2023-09-12T04:04:44;11.88;;;8.20;;
63093;SDS011;49183;51.380;0.098;2023-09-12T04:07:12;12.60;;;8.97;;
63093;SDS011;49183;51.380;0.098;2023-09-12T04:09:40;13.43;;;9.57;;
63093;SDS011;49183;51.380;0.098;2023-09-12T04:12:07;10.68;;;8.93;;
63093;SDS011;49183;51.380;0.098;2023-09-12T04:14:36;14.98;;;9.98;;
63093;SDS011;49183;51.380;0.098;2023-09-12T04:17:04;15.38;;;10.05;;
63093;SDS011;49183;51.380;0.098;2023-09-12T04:19:35;12.05;;;9.32;;
63093;SDS011;49183;51.380;0.098;2023-09-12T04:22:03;16.00;;;10.10;;
63093;SDS011;49183;51.380;0.098;2023-09-12T04:24:31;11.48;;;9.52;;
63093;SDS011;49183;51.380;0.098;2023-09-12T04:27:00;12.68;;;8.90;;
63093;SDS011;49183;51.380;0.098;2023-09-12T04:29:27;11.75;;;8.90;;
63093;SDS011;49183;51.380;0.098;2023-09-12T04:31:55;11.60;;;9.03;;
63093;SDS011;49183;51.380;0.098;2023-09-12T04:34:27;9.82;;;8.27;;
63093;SDS011;49183;51.380;0.098;2023-09-12T04:36:55;10.25;;;8.18;;
63093;SDS011;49183;51.380;0.098;2023-09-12T04:39:23;11.10;;;7.75;;
63093;SDS011;49183;51.380;0.098;2023-09-12T04:41:52;8.35;;;7.38;;
63093;SDS011;49183;51.380;0.098;2023-09-12T04:44:20;10.48;;;6.93;;
63093;SDS011;49183;51.380;0.098;2023-09-12T04:46:48;9.38;;;7.22;;
63093;SDS011;49183;51.380;0.098;2023-09-12T04:49:15;9.48;;;6.60;;
63093;SDS011;49183;51.380;0.098;2023-09-12T04:51:43;7.65;;;6.85;;
63093;SDS011;49183;51.380;0.098;2023-09-12T04:54:11;6.68;;;6.00;;
63093;SDS011;49183;51.380;0.098;2023-09-12T04:56:39;6.57;;;5.85;;
63093;SDS011;49183;51.380;0.098;2023-09-12T04:59:06;6.45;;;5.80;;
63093;SDS011;49183;51.380;0.098;2023-09-12T05:01:35;6.07;;;5.45;;
63093;SDS011;49183;51.380;0.098;2023-09-12T05:04:03;9.75;;;6.63;;
63093;SDS011;49183;51.380;0.098;2023-09-12T05:06:31;6.75;;;5.35;;
63093;SDS011;49183;51.380;0.098;2023-09-12T05:09:00;6.85;;;6.07;;
63093;SDS011;49183;51.380;0.098;2023-09-12T05:11:28;6.45;;;5.35;;
63093;SDS011;49183;51.380;0.098;2023-09-12T05:13:56;7.27;;;5.63;;
63093;SDS011;49183;51.380;0.098;2023-09-12T05:16:23;7.67;;;5.87;;
63093;SDS011;49183;51.380;0.098;2023-09-12T05:18:51;6.63;;;5.57;;
63093;SDS011;49183;51.380;0.098;2023-09-12T05:21:19;6.28;;;5.60;;
63093;SDS011;49183;51.380;0.098;2023-09-12T05:23:48;8.65;;;6.10;;
63093;SDS011;49183;51.380;0.098;2023-09-12T05:26:16;7.88;;;6.20;;
63093;SDS011;49183;51.380;0.098;2023-09-12T05:28:43;6.83;;;5.40;;
63093;SDS011;49183;51.380;0.098;2023-09-12T05:31:11;8.57;;;6.25;;
63093;SDS011;49183;51.380;0.098;2023-09-12T05:33:39;8.07;;;5.90;;
63093;SDS011;49183;51.380;0.098;2023-09-12T05:36:07;8.32;;;6.75;;
63093;SDS011;49183;51.380;0.098;2023-09-12T05:38:36;8.07;;;5.65;;
63093;SDS011;49183;51.380;0.098;2023-09-12T05:41:03;9.90;;;6.10;;
63093;SDS011;49183;51.380;0.098;2023-09-12T05:43:31;10.18;;;6.22;;
63093;SDS011;49183;51.380;0.098;2023-09-12T05:45:59;9.87;;;6.23;;
63093;SDS011;49183;51.380;0.098;2023-09-12T05:48:27;10.57;;;7.30;;
63093;SDS011;49183;51.380;0.098;2023-09-12T05:50:55;9.35;;;6.60;;
63093;SDS011;49183;51.380;0.098;2023-09-12T05:53:23;8.60;;;6.10;;
63093;SDS011;49183;51.380;0.098;2023-09-12T05:55:51;11.25;;;7.32;;
63093;SDS011;49183;51.380;0.098;2023-09-12T05:58:19;9.70;;;6.00;;
63093;SDS011;49183;51.380;0.098;2023-09-12T06:00:46;7.90;;;5.35;;
63093;SDS011;49183;51.380;0.098;2023-09-12T06:03:15;7.15;;;5.63;;
63093;SDS011;49183;51.380;0.098;2023-09-12T06:05:43;8.52;;;6.00;;
63093;SDS011;49183;51.380;0.098;2023-09-12T06:08:11;7.25;;;5.65;;
63093;SDS011;49183;51.380;0.098;2023-09-12T06:10:39;13.05;;;5.55;;
63093;SDS011;49183;51.380;0.098;2023-09-12T06:13:06;5.50;;;4.38;;
63093;SDS011;49183;51.380;0.098;2023-09-12T06:15:37;9.05;;;4.25;;
63093;SDS011;49183;51.380;0.098;2023-09-12T06:18:07;4.95;;;3.90;;
63093;SDS011;49183;51.380;0.098;2023-09-12T06:20:38;5.82;;;3.70;;
63093;SDS011;49183;51.380;0.098;2023-09-12T06:23:06;5.18;;;4.18;;
63093;SDS011;49183;51.380;0.098;2023-09-12T06:25:33;6.00;;;4.00;;
63093;SDS011;49183;51.380;0.098;2023-09-12T06:28:02;10.05;;;5.15;;
63093;SDS011;49183;51.380;0.098;2023-09-12T06:30:30;6.35;;;4.43;;
63093;SDS011;49183;51.380;0.098;2023-09-12T06:32:58;6.20;;;4.25;;
63093;SDS011;49183;51.380;0.098;2023-09-12T06:35:26;6.32;;;4.70;;
63093;SDS011;49183;51.380;0.098;2023-09-12T06:37:54;6.88;;;4.90;;
63093;SDS011;49183;51.380;0.098;2023-09-12T06:40:23;4.82;;;4.03;;
63093;SDS011;49183;51.380;0.098;2023-09-12T06:42:51;6.85;;;4.13;;
63093;SDS011;49183;51.380;0.098;2023-09-12T06:45:18;5.53;;;4.22;;
63093;SDS011;49183;51.380;0.098;2023-09-12T06:47:46;7.70;;;4.57;;
63093;SDS011;49183;51.380;0.098;2023-09-12T06:50:14;4.95;;;3.50;;
63093;SDS011;49183;51.380;0.098;2023-09-12T06:52:43;2.67;;;2.43;;
63093;SDS011;49183;51.380;0.098;2023-09-12T06:55:11;2.63;;;2.22;;
63093;SDS011;49183;51.380;0.098;2023-09-12T06:57:39;3.55;;;2.80;;
63093;SDS011;49183;51.380;0.098;2023-09-12T07:00:07;3.13;;;2.22;;
63093;SDS011;49183;51.380;0.098;2023-09-12T07:02:36;2.00;;;1.80;;
63093;SDS011;49183;51.380;0.098;2023-09-12T07:05:04;2.47;;;1.83;;
63093;SDS011;49183;51.380;0.098;2023-09-12T07:07:32;2.20;;;1.80;;
63093;SDS011;49183;51.380;0.098;2023-09-12T07:10:00;1.55;;;1.20;;
63093;SDS011;49183;51.380;0.098;2023-09-12T07:12:49;2.40;;;1.88;;
63093;SDS011;49183;51.380;0.098;2023-09-12T07:15:17;2.20;;;2.00;;
63093;SDS011;49183;51.380;0.098;2023-09-12T07:17:46;1.63;;;1.30;;
63093;SDS011;49183;51.380;0.098;2023-09-12T07:20:15;1.40;;;1.15;;
63093;SDS011;49183;51.380;0.098;2023-09-12T07:22:45;5.75;;;1.60;;
63093;SDS011;49183;51.380;0.098;2023-09-12T07:25:16;2.13;;;1.30;;
63093;SDS011;49183;51.380;0.098;2023-09-12T07:27:47;2.58;;;1.60;;
63093;SDS011;49183;51.380;0.098;2023-09-12T07:30:16;2.10;;;1.35;;
63093;SDS011;49183;51.380;0.098;2023-09-12T07:32:44;1.50;;;1.08;;
63093;SDS011;49183;51.380;0.098;2023-09-12T07:35:12;1.95;;;0.65;;
63093;SDS011;49183;51.380;0.098;2023-09-12T07:37:40;0.98;;;0.52;;
63093;SDS011;49183;51.380;0.098;2023-09-12T07:40:08;2.75;;;0.57;;
63093;SDS011;49183;51.380;0.098;2023-09-12T07:42:37;0.68;;;0.55;;
63093;SDS011;49183;51.380;0.098;2023-09-12T07:45:05;0.73;;;0.45;;
63093;SDS011;49183;51.380;0.098;2023-09-12T07:47:33;0.70;;;0.40;;
63093;SDS011;49183;51.380;0.098;2023-09-12T07:50:01;1.90;;;0.70;;
63093;SDS011;49183;51.380;0.098;2023-09-12T07:52:28;2.00;;;0.50;;
63093;SDS011;49183;51.380;0.098;2023-09-12T07:55:00;0.65;;;0.50;;
63093;SDS011;49183;51.380;0.098;2023-09-12T07:57:28;1.02;;;0.50;;
63093;SDS011;49183;51.380;0.098;2023-09-12T08:02:24;0.68;;;0.50;;
63093;SDS011;49183;51.380;0.098;2023-09-12T08:04:52;0.63;;;0.50;;
63093;SDS011;49183;51.380;0.098;2023-09-12T08:07:22;0.40;;;0.40;;
63093;SDS011;49183;51.380;0.098;2023-09-12T08:09:54;0.40;;;0.40;;
63093;SDS011;49183;51.380;0.098;2023-09-12T08:12:27;0.55;;;0.40;;
63093;SDS011;49183;51.380;0.098;2023-09-12T08:14:55;0.80;;;0.50;;
63093;SDS011;49183;51.380;0.098;2023-09-12T08:17:23;0.75;;;0.43;;
63093;SDS011;49183;51.380;0.098;2023-09-12T08:19:51;1.15;;;0.40;;
63093;SDS011;49183;51.380;0.098;2023-09-12T08:22:19;1.45;;;0.40;;
63093;SDS011;49183;51.380;0.098;2023-09-12T08:24:46;0.47;;;0.40;;
63093;SDS011;49183;51.380;0.098;2023-09-12T08:27:14;5.63;;;0.80;;
63093;SDS011;49183;51.380;0.098;2023-09-12T08:29:42;0.60;;;0.40;;
63093;SDS011;49183;51.380;0.098;2023-09-12T08:32:11;0.50;;;0.50;;
63093;SDS011;49183;51.380;0.098;2023-09-12T08:34:39;2.83;;;0.50;;
63093;SDS011;49183;51.380;0.098;2023-09-12T08:37:07;0.57;;;0.37;;
63093;SDS011;49183;51.380;0.098;2023-09-12T08:39:44;0.77;;;0.60;;
63093;SDS011;49183;51.380;0.098;2023-09-12T08:42:13;1.85;;;0.60;;
63093;SDS011;49183;51.380;0.098;2023-09-12T08:44:42;2.53;;;0.68;;
63093;SDS011;49183;51.380;0.098;2023-09-12T08:47:11;0.55;;;0.40;;
63093;SDS011;49183;51.380;0.098;2023-09-12T08:49:40;1.45;;;0.50;;
63093;SDS011;49183;51.380;0.098;2023-09-12T08:52:09;0.93;;;0.65;;
63093;SDS011;49183;51.380;0.098;2023-09-12T08:54:37;0.93;;;0.60;;
63093;SDS011;49183;51.380;0.098;2023-09-12T08:57:05;0.60;;;0.40;;
63093;SDS011;49183;51.380;0.098;2023-09-12T09:02:02;3.72;;;0.80;;
63093;SDS011;49183;51.380;0.098;2023-09-12T09:04:33;1.23;;;0.60;;
63093;SDS011;49183;51.380;0.098;2023-09-12T09:07:01;0.40;;;0.40;;
63093;SDS011;49183;51.380;0.098;2023-09-12T09:09:31;1.15;;;0.65;;
63093;SDS011;49183;51.380;0.098;2023-09-12T09:12:00;1.23;;;0.70;;
63093;SDS011;49183;51.380;0.098;2023-09-12T09:14:29;4.57;;;0.80;;
63093;SDS011;49183;51.380;0.098;2023-09-12T09:16:57;1.40;;;0.70;;
63093;SDS011;49183;51.380;0.098;2023-09-12T09:19:41;0.68;;;0.50;;
63093;SDS011;49183;51.380;0.098;2023-09-12T09:22:10;1.13;;;0.80;;
63093;SDS011;49183;51.380;0.098;2023-09-12T09:24:38;1.13;;;1.02;;
63093;SDS011;49183;51.380;0.098;2023-09-12T09:27:06;0.95;;;0.65;;
63093;SDS011;49183;51.380;0.098;2023-09-12T09:29:45;2.47;;;0.63;;
63093;SDS011;49183;51.380;0.098;2023-09-12T09:32:17;1.77;;;0.63;;
63093;SDS011;49183;51.380;0.098;2023-09-12T09:34:46;0.90;;;0.55;;
63093;SDS011;49183;51.380;0.098;2023-09-12T09:37:14;0.65;;;0.50;;
63093;SDS011;49183;51.380;0.098;2023-09-12T09:39:42;0.63;;;0.50;;
63093;SDS011;49183;51.380;0.098;2023-09-12T09:42:11;0.52;;;0.45;;
63093;SDS011;49183;51.380;0.098;2023-09-12T09:44:39;1.45;;;0.52;;
63093;SDS011;49183;51.380;0.098;2023-09-12T09:47:06;1.00;;;0.50;;
63093;SDS011;49183;51.380;0.098;2023-09-12T09:49:35;0.50;;;0.50;;
63093;SDS011;49183;51.380;0.098;2023-09-12T09:52:03;2.20;;;0.70;;
63093;SDS011;49183;51.380;0.098;2023-09-12T09:54:31;0.82;;;0.52;;
63093;SDS011;49183;51.380;0.098;2023-09-12T09:57:00;1.42;;;0.73;;
63093;SDS011;49183;51.380;0.098;2023-09-12T09:59:28;1.00;;;0.70;;
63093;SDS011;49183;51.380;0.098;2023-09-12T10:01:56;1.95;;;0.45;;
63093;SDS011;49183;51.380;0.098;2023-09-12T10:04:28;0.80;;;0.50;;
63093;SDS011;49183;51.380;0.098;2023-09-12T10:06:56;1.13;;;0.68;;
63093;SDS011;49183;51.380;0.098;2023-09-12T10:09:27;1.38;;;0.57;;
63093;SDS011;49183;51.380;0.098;2023-09-12T10:11:55;0.68;;;0.40;;
63093;SDS011;49183;51.380;0.098;2023-09-12T10:14:25;0.80;;;0.60;;
63093;SDS011;49183;51.380;0.098;2023-09-12T10:16:57;0.50;;;0.50;;
63093;SDS011;49183;51.380;0.098;2023-09-12T10:19:43;1.48;;;0.38;;
63093;SDS011;49183;51.380;0.098;2023-09-12T10:22:33;1.08;;;0.50;;
63093;SDS011;49183;51.380;0.098;2023-09-12T10:25:06;0.80;;;0.50;;
63093;SDS011;49183;51.380;0.098;2023-09-12T10:27:35;0.85;;;0.55;;
63093;SDS011;49183;51.380;0.098;2023-09-12T10:30:06;0.70;;;0.55;;
63093;SDS011;49183;51.380;0.098;2023-09-12T10:32:35;1.48;;;0.70;;
63093;SDS011;49183;51.380;0.098;2023-09-12T10:35:04;4.28;;;0.93;;
63093;SDS011;49183;51.380;0.098;2023-09-12T10:37:35;0.77;;;0.50;;
63093;SDS011;49183;51.380;0.098;2023-09-12T10:40:09;1.02;;;0.60;;
63093;SDS011;49183;51.380;0.098;2023-09-12T10:42:39;0.90;;;0.60;;
63093;SDS011;49183;51.380;0.098;2023-09-12T10:45:08;0.60;;;0.50;;
63093;SDS011;49183;51.380;0.098;2023-09-12T10:47:36;2.58;;;0.70;;
63093;SDS011;49183;51.380;0.098;2023-09-12T10:52:34;0.73;;;0.57;;
63093;SDS011;49183;51.380;0.098;2023-09-12T10:55:08;1.02;;;0.68;;
63093;SDS011;49183;51.380;0.098;2023-09-12T10:58:01;4.43;;;0.75;;
63093;SDS011;49183;51.380;0.098;2023-09-12T11:00:30;1.15;;;0.73;;
63093;SDS011;49183;51.380;0.098;2023-09-12T11:05:55;1.33;;;0.70;;
63093;SDS011;49183;51.380;0.098;2023-09-12T11:08:24;1.30;;;0.90;;
63093;SDS011;49183;51.380;0.098;2023-09-12T11:11:17;1.45;;;1.08;;
63093;SDS011;49183;51.380;0.098;2023-09-12T11:13:46;3.67;;;1.70;;
63093;SDS011;49183;51.380;0.098;2023-09-12T11:16:16;2.08;;;1.45;;
63093;SDS011;49183;51.380;0.098;2023-09-12T11:21:39;1.55;;;1.05;;
63093;SDS011;49183;51.380;0.098;2023-09-12T11:24:08;3.30;;;1.23;;
63093;SDS011;49183;51.380;0.098;2023-09-12T11:26:43;4.70;;;2.25;;
63093;SDS011;49183;51.380;0.098;2023-09-12T11:29:27;2.05;;;1.80;;
63093;SDS011;49183;51.380;0.098;2023-09-12T11:32:05;4.63;;;2.63;;
63093;SDS011;49183;51.380;0.098;2023-09-12T11:34:43;3.63;;;2.35;;
63093;SDS011;49183;51.380;0.098;2023-09-12T11:37:22;2.00;;;1.40;;
63093;SDS011;49183;51.380;0.098;2023-09-12T11:39:51;2.25;;;1.67;;
63093;SDS011;49183;51.380;0.098;2023-09-12T11:42:20;1.65;;;1.17;;
63093;SDS011;49183;51.380;0.098;2023-09-12T11:44:52;1.88;;;1.17;;
63093;SDS011;49183;51.380;0.098;2023-09-12T11:47:20;1.33;;;0.90;;
63093;SDS011;49183;51.380;0.098;2023-09-12T11:49:48;1.58;;;1.23;;
63093;SDS011;49183;51.380;0.098;2023-09-12T11:52:16;1.48;;;1.02;;
63093;SDS011;49183;51.380;0.098;2023-09-12T11:54:44;1.52;;;1.02;;
63093;SDS011;49183;51.380;0.098;2023-09-12T11:57:13;1.98;;;1.30;;
63093;SDS011;49183;51.380;0.098;2023-09-12T11:59:45;2.55;;;1.30;;
63093;SDS011;49183;51.380;0.098;2023-09-12T12:02:16;1.40;;;1.20;;
63093;SDS011;49183;51.380;0.098;2023-09-12T12:04:44;1.80;;;1.25;;
63093;SDS011;49183;51.380;0.098;2023-09-12T12:07:12;1.45;;;1.13;;
63093;SDS011;49183;51.380;0.098;2023-09-12T12:09:43;2.38;;;1.48;;
63093;SDS011;49183;51.380;0.098;2023-09-12T12:12:12;2.08;;;1.38;;
63093;SDS011;49183;51.380;0.098;2023-09-12T12:14:41;2.83;;;1.65;;
63093;SDS011;49183;51.380;0.098;2023-09-12T12:17:09;3.63;;;2.13;;
63093;SDS011;49183;51.380;0.098;2023-09-12T12:19:38;4.60;;;1.92;;
63093;SDS011;49183;51.380;0.098;2023-09-12T12:22:06;2.70;;;1.60;;
63093;SDS011;49183;51.380;0.098;2023-09-12T12:24:42;1.40;;;1.10;;
63093;SDS011;49183;51.380;0.098;2023-09-12T12:27:14;2.63;;;1.90;;
63093;SDS011;49183;51.380;0.098;2023-09-12T12:29:44;2.58;;;1.10;;
63093;SDS011;49183;51.380;0.098;2023-09-12T12:32:14;2.15;;;1.60;;
63093;SDS011;49183;51.380;0.098;2023-09-12T12:34:47;1.35;;;1.10;;
63093;SDS011;49183;51.380;0.098;2023-09-12T12:37:36;2.05;;;1.50;;
63093;SDS011;49183;51.380;0.098;2023-09-12T12:40:05;5.35;;;2.55;;
63093;SDS011;49183;51.380;0.098;2023-09-12T12:42:39;3.30;;;3.00;;
63093;SDS011;49183;51.380;0.098;2023-09-12T12:45:21;5.28;;;3.78;;
63093;SDS011;49183;51.380;0.098;2023-09-12T12:47:51;4.53;;;4.13;;
63093;SDS011;49183;51.380;0.098;2023-09-12T12:50:24;4.00;;;3.60;;
63093;SDS011;49183;51.380;0.098;2023-09-12T12:52:52;4.35;;;3.05;;
63093;SDS011;49183;51.380;0.098;2023-09-12T12:55:21;5.35;;;4.85;;
63093;SDS011;49183;51.380;0.098;2023-09-12T12:57:52;3.45;;;3.15;;
63093;SDS011;49183;51.380;0.098;2023-09-12T13:00:20;3.70;;;3.27;;
63093;SDS011;49183;51.380;0.098;2023-09-12T13:02:50;3.08;;;2.65;;
63093;SDS011;49183;51.380;0.098;2023-09-12T13:05:27;3.88;;;3.58;;
63093;SDS011;49183;51.380;0.098;2023-09-12T13:07:56;3.13;;;2.83;;
63093;SDS011;49183;51.380;0.098;2023-09-12T13:10:24;3.22;;;2.58;;
63093;SDS011;49183;51.380;0.098;2023-09-12T13:12:55;2.03;;;1.83;;
63093;SDS011;49183;51.380;0.098;2023-09-12T13:15:23;3.28;;;2.03;;
63093;SDS011;49183;51.380;0.098;2023-09-12T13:17:51;3.10;;;2.30;;
63093;SDS011;49183;51.380;0.098;2023-09-12T13:20:19;2.63;;;2.05;;
63093;SDS011;49183;51.380;0.098;2023-09-12T13:22:47;3.35;;;2.33;;
63093;SDS011;49183;51.380;0.098;2023-09-12T13:25:15;2.70;;;2.25;;
63093;SDS011;49183;51.380;0.098;2023-09-12T13:27:43;2.60;;;2.25;;
63093;SDS011;49183;51.380;0.098;2023-09-12T13:30:11;3.08;;;1.83;;
63093;SDS011;49183;51.380;0.098;2023-09-12T13:32:39;5.07;;;2.10;;
63093;SDS011;49183;51.380;0.098;2023-09-12T13:35:06;2.20;;;1.70;;
63093;SDS011;49183;51.380;0.098;2023-09-12T13:37:35;5.25;;;2.42;;
63093;SDS011;49183;51.380;0.098;2023-09-12T13:40:03;2.55;;;2.10;;
63093;SDS011;49183;51.380;0.098;2023-09-12T13:42:34;2.20;;;1.73;;
63093;SDS011;49183;51.380;0.098;2023-09-12T13:45:01;2.28;;;2.05;;
63093;SDS011;49183;51.380;0.098;2023-09-12T13:47:29;3.45;;;2.10;;
63093;SDS011;49183;51.380;0.098;2023-09-12T13:49:57;2.60;;;2.22;;
63093;SDS011;49183;51.380;0.098;2023-09-12T13:52:28;1.65;;;1.35;;
63093;SDS011;49183;51.380;0.098;2023-09-12T13:54:56;1.70;;;1.40;;
63093;SDS011;49183;51.380;0.098;2023-09-12T13:57:25;3.17;;;1.52;;
63093;SDS011;49183;51.380;0.098;2023-09-12T13:59:53;2.20;;;1.90;;
63093;SDS011;49183;51.380;0.098;2023-09-12T14:02:21;4.32;;;2.08;;
63093;SDS011;49183;51.380;0.098;2023-09-12T14:04:51;2.30;;;2.10;;
63093;SDS011;49183;51.380;0.098;2023-09-12T14:07:35;2.33;;;2.13;;
63093;SDS011;49183;51.380;0.098;2023-09-12T14:10:05;2.60;;;2.40;;
63093;SDS011;49183;51.380;0.098;2023-09-12T14:12:34;2.72;;;2.35;;
63093;SDS011;49183;51.380;0.098;2023-09-12T14:15:02;3.20;;;2.30;;
63093;SDS011;49183;51.380;0.098;2023-09-12T14:17:35;4.57;;;3.10;;
63093;SDS011;49183;51.380;0.098;2023-09-12T14:20:08;3.17;;;2.30;;
63093;SDS011;49183;51.380;0.098;2023-09-12T14:22:36;2.08;;;1.58;;
63093;SDS011;49183;51.380;0.098;2023-09-12T14:25:04;2.65;;;1.73;;
63093;SDS011;49183;51.380;0.098;2023-09-12T14:27:32;5.97;;;2.30;;
63093;SDS011;49183;51.380;0.098;2023-09-12T14:30:00;1.98;;;1.55;;
63093;SDS011;49183;51.380;0.098;2023-09-12T14:32:30;4.30;;;2.20;;
63093;SDS011;49183;51.380;0.098;2023-09-12T14:34:58;2.78;;;2.53;;
63093;SDS011;49183;51.380;0.098;2023-09-12T14:37:26;5.43;;;2.30;;
63093;SDS011;49183;51.380;0.098;2023-09-12T14:39:54;3.58;;;1.75;;
63093;SDS011;49183;51.380;0.098;2023-09-12T14:42:23;2.85;;;2.08;;
63093;SDS011;49183;51.380;0.098;2023-09-12T14:44:50;3.58;;;1.90;;
63093;SDS011;49183;51.380;0.098;2023-09-12T14:47:18;3.13;;;2.20;;
63093;SDS011;49183;51.380;0.098;2023-09-12T14:49:46;2.90;;;2.60;;
63093;SDS011;49183;51.380;0.098;2023-09-12T14:52:18;4.57;;;1.98;;
63093;SDS011;49183;51.380;0.098;2023-09-12T14:54:53;2.92;;;2.00;;
63093;SDS011;49183;51.380;0.098;2023-09-12T14:57:21;2.60;;;1.47;;
63093;SDS011;49183;51.380;0.098;2023-09-12T15:02:18;2.20;;;2.00;;
63093;SDS011;49183;51.380;0.098;2023-09-12T15:04:46;2.90;;;2.22;;
63093;SDS011;49183;51.380;0.098;2023-09-12T15:07:14;4.53;;;2.60;;
63093;SDS011;49183;51.380;0.098;2023-09-12T15:09:44;3.90;;;2.40;;
63093;SDS011;49183;51.380;0.098;2023-09-12T15:12:12;3.00;;;2.35;;
63093;SDS011;49183;51.380;0.098;2023-09-12T15:14:39;4.40;;;2.75;;
63093;SDS011;49183;51.380;0.098;2023-09-12T15:17:07;2.35;;;2.15;;